sensor_id;sensor_type;location;lat;lon;timestamp;temperature;humidity
29777;DHT22;16677;52.224;7.484;2024-02-26T00:01:47;4.70;1.00
29777;DHT22;16677;52.224;7.484;2024-02-26T00:04:14;4.70;1.00
29777;DHT22;16677;52.224;7.484;2024-02-26T00:06:42;4.70;1.00
29777;DHT22;16677;52.224;7.484;2024-02-26T00:09:09;4.60;1.00
29777;DHT22;16677;52.224;7.484;2024-02-26T00:11:37;4.30;1.00
29777;DHT22;16677;52.224;7.484;2024-02-26T00:14:04;4.20;1.00
29777;DHT22;16677;52.224;7.484;2024-02-26T00:16:30;4.00;1.00
29777;DHT22;16677;52.224;7.484;2024-02-26T00:18:57;3.90;1.00
29777;DHT22;16677;52.224;7.484;2024-02-26T00:21:24;3.80;99.90
29777;DHT22;16677;52.224;7.484;2024-02-26T00:23:52;3.70;99.90
29777;DHT22;16677;52.224;7.484;2024-02-26T00:26:19;3.70;99.90
29777;DHT22;16677;52.224;7.484;2024-02-26T00:28:46;3.70;99.90
29777;DHT22;16677;52.224;7.484;2024-02-26T00:31:13;3.60;99.90
29777;DHT22;16677;52.224;7.484;2024-02-26T00:33:40;3.60;99.90
29777;DHT22;16677;52.224;7.484;2024-02-26T00:36:07;3.60;1.00
29777;DHT22;16677;52.224;7.484;2024-02-26T00:38:34;3.70;1.00
29777;DHT22;16677;52.224;7.484;2024-02-26T00:41:01;3.90;1.00
29777;DHT22;16677;52.224;7.484;2024-02-26T00:43:29;3.90;99.90
29777;DHT22;16677;52.224;7.484;2024-02-26T00:45:55;3.90;99.90
29777;DHT22;16677;52.224;7.484;2024-02-26T00:48:22;3.80;99.90
29777;DHT22;16677;52.224;7.484;2024-02-26T00:50:52;3.70;99.90
29777;DHT22;16677;52.224;7.484;2024-02-26T00:53:19;3.70;99.90
29777;DHT22;16677;52.224;7.484;2024-02-26T00:55:45;3.60;1.00
29777;DHT22;16677;52.224;7.484;2024-02-26T00:58:13;3.50;1.00
29777;DHT22;16677;52.224;7.484;2024-02-26T01:00:39;3.50;1.00
29777;DHT22;16677;52.224;7.484;2024-02-26T01:03:06;3.40;1.00
29777;DHT22;16677;52.224;7.484;2024-02-26T01:05:33;3.50;3.10
29777;DHT22;16677;52.224;7.484;2024-02-26T01:08:00;3.50;35.80
29777;DHT22;16677;52.224;7.484;2024-02-26T01:10:27;3.50;32.90
29777;DHT22;16677;52.224;7.484;2024-02-26T01:12:54;3.60;5.60
29777;DHT22;16677;52.224;7.484;2024-02-26T01:15:21;3.60;25.80
29777;DHT22;16677;52.224;7.484;2024-02-26T01:17:50;3.60;27.50
29777;DHT22;16677;52.224;7.484;2024-02-26T01:20:17;3.50;60.80
29777;DHT22;16677;52.224;7.484;2024-02-26T01:22:44;3.60;98.70
29777;DHT22;16677;52.224;7.484;2024-02-26T01:25:11;3.60;99.90
29777;DHT22;16677;52.224;7.484;2024-02-26T01:27:38;3.60;99.90
29777;DHT22;16677;52.224;7.484;2024-02-26T01:30:06;3.60;99.90
29777;DHT22;16677;52.224;7.484;2024-02-26T01:32:33;3.70;72.10
29777;DHT22;16677;52.224;7.484;2024-02-26T01:35:00;3.70;25.90
29777;DHT22;16677;52.224;7.484;2024-02-26T01:37:27;3.80;63.10
29777;DHT22;16677;52.224;7.484;2024-02-26T01:39:56;3.80;1.00
29777;DHT22;16677;52.224;7.484;2024-02-26T01:42:23;3.80;1.00
29777;DHT22;16677;52.224;7.484;2024-02-26T01:44:49;3.80;1.00
29777;DHT22;16677;52.224;7.484;2024-02-26T01:47:16;3.90;1.00
29777;DHT22;16677;52.224;7.484;2024-02-26T01:49:43;3.80;1.00
29777;DHT22;16677;52.224;7.484;2024-02-26T01:52:10;3.90;1.00
29777;DHT22;16677;52.224;7.484;2024-02-26T01:54:38;3.90;1.00
29777;DHT22;16677;52.224;7.484;2024-02-26T01:57:05;3.90;1.00
29777;DHT22;16677;52.224;7.484;2024-02-26T01:59:33;4.00;1.00
29777;DHT22;16677;52.224;7.484;2024-02-26T02:02:01;4.10;1.00
29777;DHT22;16677;52.224;7.484;2024-02-26T02:04:28;4.10;1.00
29777;DHT22;16677;52.224;7.484;2024-02-26T02:06:56;4.20;1.00
29777;DHT22;16677;52.224;7.484;2024-02-26T02:09:23;4.20;1.00
29777;DHT22;16677;52.224;7.484;2024-02-26T02:11:51;4.30;1.00
29777;DHT22;16677;52.224;7.484;2024-02-26T02:14:18;4.40;99.90
29777;DHT22;16677;52.224;7.484;2024-02-26T02:16:45;4.50;99.90
29777;DHT22;16677;52.224;7.484;2024-02-26T02:19:12;4.50;99.90
29777;DHT22;16677;52.224;7.484;2024-02-26T02:21:39;4.60;99.90
29777;DHT22;16677;52.224;7.484;2024-02-26T02:24:06;4.60;99.90
29777;DHT22;16677;52.224;7.484;2024-02-26T02:26:33;4.60;99.90
29777;DHT22;16677;52.224;7.484;2024-02-26T02:29:00;4.70;99.90
29777;DHT22;16677;52.224;7.484;2024-02-26T02:31:27;4.70;66.50
29777;DHT22;16677;52.224;7.484;2024-02-26T02:33:53;4.60;24.30
29777;DHT22;16677;52.224;7.484;2024-02-26T02:36:20;4.50;95.40
29777;DHT22;16677;52.224;7.484;2024-02-26T02:38:50;4.40;99.90
29777;DHT22;16677;52.224;7.484;2024-02-26T02:41:18;4.40;99.90
29777;DHT22;16677;52.224;7.484;2024-02-26T02:43:45;4.40;99.90
29777;DHT22;16677;52.224;7.484;2024-02-26T02:46:11;4.30;99.90
29777;DHT22;16677;52.224;7.484;2024-02-26T02:48:38;4.30;99.90
29777;DHT22;16677;52.224;7.484;2024-02-26T02:51:05;4.30;99.90
29777;DHT22;16677;52.224;7.484;2024-02-26T02:53:32;4.30;99.90
29777;DHT22;16677;52.224;7.484;2024-02-26T02:55:59;4.30;99.90
29777;DHT22;16677;52.224;7.484;2024-02-26T02:58:26;4.20;99.90
29777;DHT22;16677;52.224;7.484;2024-02-26T03:00:53;4.20;99.90
29777;DHT22;16677;52.224;7.484;2024-02-26T03:03:21;4.10;99.90
29777;DHT22;16677;52.224;7.484;2024-02-26T03:05:50;4.10;99.90
29777;DHT22;16677;52.224;7.484;2024-02-26T03:08:17;4.00;1.00
29777;DHT22;16677;52.224;7.484;2024-02-26T03:10:45;4.10;1.00
29777;DHT22;16677;52.224;7.484;2024-02-26T03:13:12;4.10;1.00
29777;DHT22;16677;52.224;7.484;2024-02-26T03:15:39;4.10;1.00
29777;DHT22;16677;52.224;7.484;2024-02-26T03:18:06;4.10;1.00
29777;DHT22;16677;52.224;7.484;2024-02-26T03:20:33;4.10;1.00
29777;DHT22;16677;52.224;7.484;2024-02-26T03:23:00;4.20;99.90
29777;DHT22;16677;52.224;7.484;2024-02-26T03:25:29;4.20;99.90
29777;DHT22;16677;52.224;7.484;2024-02-26T03:27:56;4.20;99.90
29777;DHT22;16677;52.224;7.484;2024-02-26T03:30:23;4.20;99.90
29777;DHT22;16677;52.224;7.484;2024-02-26T03:32:50;4.20;99.90
29777;DHT22;16677;52.224;7.484;2024-02-26T03:35:17;4.30;99.90
29777;DHT22;16677;52.224;7.484;2024-02-26T03:37:45;4.30;99.90
29777;DHT22;16677;52.224;7.484;2024-02-26T03:40:12;4.40;99.90
29777;DHT22;16677;52.224;7.484;2024-02-26T03:42:41;4.50;99.90
29777;DHT22;16677;52.224;7.484;2024-02-26T03:45:08;4.40;99.90
29777;DHT22;16677;52.224;7.484;2024-02-26T03:47:37;4.50;99.90
29777;DHT22;16677;52.224;7.484;2024-02-26T03:50:04;4.50;99.90
29777;DHT22;16677;52.224;7.484;2024-02-26T03:52:32;4.60;96.10
29777;DHT22;16677;52.224;7.484;2024-02-26T03:54:58;4.70;7.70
29777;DHT22;16677;52.224;7.484;2024-02-26T03:57:25;4.70;1.00
29777;DHT22;16677;52.224;7.484;2024-02-26T03:59:52;4.70;1.00
29777;DHT22;16677;52.224;7.484;2024-02-26T04:02:19;4.70;1.00
29777;DHT22;16677;52.224;7.484;2024-02-26T04:04:46;4.70;1.00
29777;DHT22;16677;52.224;7.484;2024-02-26T04:07:13;4.80;1.00
29777;DHT22;16677;52.224;7.484;2024-02-26T04:09:40;4.80;1.00
29777;DHT22;16677;52.224;7.484;2024-02-26T04:12:07;4.80;1.00
29777;DHT22;16677;52.224;7.484;2024-02-26T04:14:35;4.80;1.00
29777;DHT22;16677;52.224;7.484;2024-02-26T04:17:02;4.90;1.00
29777;DHT22;16677;52.224;7.484;2024-02-26T04:19:29;4.90;1.00
29777;DHT22;16677;52.224;7.484;2024-02-26T04:21:56;4.90;1.00
29777;DHT22;16677;52.224;7.484;2024-02-26T04:24:23;4.90;1.00
29777;DHT22;16677;52.224;7.484;2024-02-26T04:26:50;4.90;1.00
29777;DHT22;16677;52.224;7.484;2024-02-26T04:29:16;4.90;1.00
29777;DHT22;16677;52.224;7.484;2024-02-26T04:31:43;4.90;1.00
29777;DHT22;16677;52.224;7.484;2024-02-26T04:34:12;4.90;1.00
29777;DHT22;16677;52.224;7.484;2024-02-26T04:36:40;5.00;1.00
29777;DHT22;16677;52.224;7.484;2024-02-26T04:39:07;5.00;1.00
29777;DHT22;16677;52.224;7.484;2024-02-26T04:41:34;5.00;99.90
29777;DHT22;16677;52.224;7.484;2024-02-26T04:44:01;5.00;99.90
29777;DHT22;16677;52.224;7.484;2024-02-26T04:46:28;5.10;99.90
29777;DHT22;16677;52.224;7.484;2024-02-26T04:48:55;5.10;99.90
29777;DHT22;16677;52.224;7.484;2024-02-26T04:51:23;5.10;99.90
29777;DHT22;16677;52.224;7.484;2024-02-26T04:53:50;5.10;99.90
29777;DHT22;16677;52.224;7.484;2024-02-26T04:56:21;5.10;99.90
29777;DHT22;16677;52.224;7.484;2024-02-26T04:58:47;5.10;99.90
29777;DHT22;16677;52.224;7.484;2024-02-26T05:01:15;5.10;99.90
29777;DHT22;16677;52.224;7.484;2024-02-26T05:03:43;5.00;99.90
29777;DHT22;16677;52.224;7.484;2024-02-26T05:06:10;5.00;99.90
29777;DHT22;16677;52.224;7.484;2024-02-26T05:08:37;5.00;99.90
29777;DHT22;16677;52.224;7.484;2024-02-26T05:11:05;5.00;99.90
29777;DHT22;16677;52.224;7.484;2024-02-26T05:13:32;5.00;99.90
29777;DHT22;16677;52.224;7.484;2024-02-26T05:15:59;5.00;99.90
29777;DHT22;16677;52.224;7.484;2024-02-26T05:18:27;5.00;99.90
29777;DHT22;16677;52.224;7.484;2024-02-26T05:20:54;5.00;99.90
29777;DHT22;16677;52.224;7.484;2024-02-26T05:23:21;5.10;99.90
29777;DHT22;16677;52.224;7.484;2024-02-26T05:25:49;5.10;99.90
29777;DHT22;16677;52.224;7.484;2024-02-26T05:28:16;5.00;99.90
29777;DHT22;16677;52.224;7.484;2024-02-26T05:30:43;5.10;99.90
29777;DHT22;16677;52.224;7.484;2024-02-26T05:33:10;5.10;99.90
29777;DHT22;16677;52.224;7.484;2024-02-26T05:35:39;5.00;99.90
29777;DHT22;16677;52.224;7.484;2024-02-26T05:38:07;5.10;99.90
29777;DHT22;16677;52.224;7.484;2024-02-26T05:40:34;5.10;99.90
29777;DHT22;16677;52.224;7.484;2024-02-26T05:43:01;5.10;99.90
29777;DHT22;16677;52.224;7.484;2024-02-26T05:45:27;5.10;99.90
29777;DHT22;16677;52.224;7.484;2024-02-26T05:47:54;5.20;99.90
29777;DHT22;16677;52.224;7.484;2024-02-26T05:50:21;5.20;99.90
29777;DHT22;16677;52.224;7.484;2024-02-26T05:52:48;5.20;99.90
29777;DHT22;16677;52.224;7.484;2024-02-26T05:55:15;5.20;99.90
29777;DHT22;16677;52.224;7.484;2024-02-26T05:57:42;5.20;99.90
29777;DHT22;16677;52.224;7.484;2024-02-26T06:00:09;5.10;99.90
29777;DHT22;16677;52.224;7.484;2024-02-26T06:02:39;5.10;99.90
29777;DHT22;16677;52.224;7.484;2024-02-26T06:05:06;5.10;99.90
29777;DHT22;16677;52.224;7.484;2024-02-26T06:07:35;5.10;99.90
29777;DHT22;16677;52.224;7.484;2024-02-26T06:10:02;5.10;99.90
29777;DHT22;16677;52.224;7.484;2024-02-26T06:12:31;5.10;99.90
29777;DHT22;16677;52.224;7.484;2024-02-26T06:14:59;5.10;99.90
29777;DHT22;16677;52.224;7.484;2024-02-26T06:17:28;5.10;99.90
29777;DHT22;16677;52.224;7.484;2024-02-26T06:19:55;5.10;99.90
29777;DHT22;16677;52.224;7.484;2024-02-26T06:22:22;5.20;99.90
29777;DHT22;16677;52.224;7.484;2024-02-26T06:24:48;5.20;99.90
29777;DHT22;16677;52.224;7.484;2024-02-26T06:27:15;5.10;99.90
29777;DHT22;16677;52.224;7.484;2024-02-26T06:29:42;5.20;99.90
29777;DHT22;16677;52.224;7.484;2024-02-26T06:32:09;5.20;99.90
29777;DHT22;16677;52.224;7.484;2024-02-26T06:34:36;5.10;99.90
29777;DHT22;16677;52.224;7.484;2024-02-26T06:37:05;5.10;99.90
29777;DHT22;16677;52.224;7.484;2024-02-26T06:39:32;5.10;99.90
29777;DHT22;16677;52.224;7.484;2024-02-26T06:41:59;5.10;99.90
29777;DHT22;16677;52.224;7.484;2024-02-26T06:44:28;5.20;99.90
29777;DHT22;16677;52.224;7.484;2024-02-26T06:46:59;5.20;99.90
29777;DHT22;16677;52.224;7.484;2024-02-26T06:49:26;5.20;99.90
29777;DHT22;16677;52.224;7.484;2024-02-26T06:51:53;5.20;99.90
29777;DHT22;16677;52.224;7.484;2024-02-26T06:54:20;5.30;99.90
29777;DHT22;16677;52.224;7.484;2024-02-26T06:56:47;5.20;99.90
29777;DHT22;16677;52.224;7.484;2024-02-26T06:59:14;5.20;99.90
29777;DHT22;16677;52.224;7.484;2024-02-26T07:01:41;5.20;99.90
29777;DHT22;16677;52.224;7.484;2024-02-26T07:04:08;5.10;99.90
29777;DHT22;16677;52.224;7.484;2024-02-26T07:06:37;5.10;1.00
29777;DHT22;16677;52.224;7.484;2024-02-26T07:09:04;5.20;1.00
29777;DHT22;16677;52.224;7.484;2024-02-26T07:11:31;5.20;1.00
29777;DHT22;16677;52.224;7.484;2024-02-26T07:13:58;5.20;1.00
29777;DHT22;16677;52.224;7.484;2024-02-26T07:16:25;5.20;1.00
29777;DHT22;16677;52.224;7.484;2024-02-26T07:18:53;5.30;99.90
29777;DHT22;16677;52.224;7.484;2024-02-26T07:21:20;5.20;1.00
29777;DHT22;16677;52.224;7.484;2024-02-26T07:23:47;5.30;99.90
29777;DHT22;16677;52.224;7.484;2024-02-26T07:26:13;5.30;99.90
29777;DHT22;16677;52.224;7.484;2024-02-26T07:28:40;5.30;99.90
29777;DHT22;16677;52.224;7.484;2024-02-26T07:31:07;5.30;99.90
29777;DHT22;16677;52.224;7.484;2024-02-26T07:33:34;5.30;99.90
29777;DHT22;16677;52.224;7.484;2024-02-26T07:36:01;5.30;99.90
29777;DHT22;16677;52.224;7.484;2024-02-26T07:38:28;5.40;99.90
29777;DHT22;16677;52.224;7.484;2024-02-26T07:41:06;5.30;99.90
29777;DHT22;16677;52.224;7.484;2024-02-26T07:43:33;5.40;99.90
29777;DHT22;16677;52.224;7.484;2024-02-26T07:46:00;5.40;1.00
29777;DHT22;16677;52.224;7.484;2024-02-26T07:48:27;5.30;1.00
29777;DHT22;16677;52.224;7.484;2024-02-26T07:50:54;5.40;1.00
29777;DHT22;16677;52.224;7.484;2024-02-26T07:53:21;5.40;1.00
29777;DHT22;16677;52.224;7.484;2024-02-26T07:55:48;5.40;1.00
29777;DHT22;16677;52.224;7.484;2024-02-26T07:58:15;5.30;1.00
29777;DHT22;16677;52.224;7.484;2024-02-26T08:00:42;5.40;99.90
29777;DHT22;16677;52.224;7.484;2024-02-26T08:03:09;5.40;1.00
29777;DHT22;16677;52.224;7.484;2024-02-26T08:05:35;5.40;1.00
29777;DHT22;16677;52.224;7.484;2024-02-26T08:08:06;5.40;1.00
29777;DHT22;16677;52.224;7.484;2024-02-26T08:10:34;5.30;99.90
29777;DHT22;16677;52.224;7.484;2024-02-26T08:13:00;5.40;99.90
29777;DHT22;16677;52.224;7.484;2024-02-26T08:15:32;5.40;99.90
29777;DHT22;16677;52.224;7.484;2024-02-26T08:18:01;5.40;99.90
29777;DHT22;16677;52.224;7.484;2024-02-26T08:20:31;5.40;99.90
29777;DHT22;16677;52.224;7.484;2024-02-26T08:22:58;5.40;1.00
29777;DHT22;16677;52.224;7.484;2024-02-26T08:25:25;5.40;99.90
29777;DHT22;16677;52.224;7.484;2024-02-26T08:27:52;5.40;99.90
29777;DHT22;16677;52.224;7.484;2024-02-26T08:30:19;5.40;1.00
29777;DHT22;16677;52.224;7.484;2024-02-26T08:32:47;5.40;99.90
29777;DHT22;16677;52.224;7.484;2024-02-26T08:35:17;5.40;99.90
29777;DHT22;16677;52.224;7.484;2024-02-26T08:37:44;5.50;99.90
29777;DHT22;16677;52.224;7.484;2024-02-26T08:40:11;5.50;99.90
29777;DHT22;16677;52.224;7.484;2024-02-26T08:42:38;5.50;99.90
29777;DHT22;16677;52.224;7.484;2024-02-26T08:45:05;5.60;99.90
29777;DHT22;16677;52.224;7.484;2024-02-26T08:47:33;5.60;99.90
29777;DHT22;16677;52.224;7.484;2024-02-26T08:50:00;5.70;99.90
29777;DHT22;16677;52.224;7.484;2024-02-26T08:52:27;5.80;99.90
29777;DHT22;16677;52.224;7.484;2024-02-26T08:54:54;5.80;99.90
29777;DHT22;16677;52.224;7.484;2024-02-26T08:57:20;5.80;99.90
29777;DHT22;16677;52.224;7.484;2024-02-26T08:59:47;5.90;99.90
29777;DHT22;16677;52.224;7.484;2024-02-26T09:02:14;5.90;99.90
29777;DHT22;16677;52.224;7.484;2024-02-26T09:04:41;5.90;99.90
29777;DHT22;16677;52.224;7.484;2024-02-26T09:07:08;5.90;99.90
29777;DHT22;16677;52.224;7.484;2024-02-26T09:09:35;6.10;99.90
29777;DHT22;16677;52.224;7.484;2024-02-26T09:12:02;6.10;94.20
29777;DHT22;16677;52.224;7.484;2024-02-26T09:14:29;6.10;99.90
29777;DHT22;16677;52.224;7.484;2024-02-26T09:16:56;6.10;57.50
29777;DHT22;16677;52.224;7.484;2024-02-26T09:19:23;6.10;75.70
29777;DHT22;16677;52.224;7.484;2024-02-26T09:21:50;6.20;16.80
29777;DHT22;16677;52.224;7.484;2024-02-26T09:24:17;6.20;25.90
29777;DHT22;16677;52.224;7.484;2024-02-26T09:26:44;6.20;73.80
29777;DHT22;16677;52.224;7.484;2024-02-26T09:29:11;6.20;43.20
29777;DHT22;16677;52.224;7.484;2024-02-26T09:31:37;6.20;4.70
29777;DHT22;16677;52.224;7.484;2024-02-26T09:34:07;6.30;1.00
29777;DHT22;16677;52.224;7.484;2024-02-26T09:36:34;6.30;26.80
29777;DHT22;16677;52.224;7.484;2024-02-26T09:39:00;6.30;65.50
29777;DHT22;16677;52.224;7.484;2024-02-26T09:41:28;6.40;41.30
29777;DHT22;16677;52.224;7.484;2024-02-26T09:43:56;6.40;8.30
29777;DHT22;16677;52.224;7.484;2024-02-26T09:46:23;6.40;1.00
29777;DHT22;16677;52.224;7.484;2024-02-26T09:48:51;6.40;24.40
29777;DHT22;16677;52.224;7.484;2024-02-26T09:51:19;6.40;53.30
29777;DHT22;16677;52.224;7.484;2024-02-26T09:53:46;6.40;21.40
29777;DHT22;16677;52.224;7.484;2024-02-26T09:56:14;6.40;57.70
29777;DHT22;16677;52.224;7.484;2024-02-26T09:58:41;6.50;1.00
29777;DHT22;16677;52.224;7.484;2024-02-26T10:01:11;6.50;1.00
29777;DHT22;16677;52.224;7.484;2024-02-26T10:03:41;6.50;4.70
29777;DHT22;16677;52.224;7.484;2024-02-26T10:06:08;6.60;1.00
29777;DHT22;16677;52.224;7.484;2024-02-26T10:08:35;6.60;1.00
29777;DHT22;16677;52.224;7.484;2024-02-26T10:11:04;6.50;1.00
29777;DHT22;16677;52.224;7.484;2024-02-26T10:13:31;6.50;21.60
29777;DHT22;16677;52.224;7.484;2024-02-26T10:15:58;6.40;52.10
29777;DHT22;16677;52.224;7.484;2024-02-26T10:18:25;6.60;28.40
29777;DHT22;16677;52.224;7.484;2024-02-26T10:21:01;6.70;1.90
29777;DHT22;16677;52.224;7.484;2024-02-26T10:23:28;6.70;2.90
29777;DHT22;16677;52.224;7.484;2024-02-26T10:25:55;6.70;1.00
29777;DHT22;16677;52.224;7.484;2024-02-26T10:28:22;6.60;1.00
29777;DHT22;16677;52.224;7.484;2024-02-26T10:30:51;6.60;1.00
29777;DHT22;16677;52.224;7.484;2024-02-26T10:33:18;6.60;1.00
29777;DHT22;16677;52.224;7.484;2024-02-26T10:35:45;6.70;1.00
29777;DHT22;16677;52.224;7.484;2024-02-26T10:38:12;6.60;1.00
29777;DHT22;16677;52.224;7.484;2024-02-26T10:40:40;6.70;1.00
29777;DHT22;16677;52.224;7.484;2024-02-26T10:43:07;6.70;1.00
29777;DHT22;16677;52.224;7.484;2024-02-26T10:45:33;6.70;1.00
29777;DHT22;16677;52.224;7.484;2024-02-26T10:48:03;6.80;1.00
29777;DHT22;16677;52.224;7.484;2024-02-26T10:50:30;6.80;1.00
29777;DHT22;16677;52.224;7.484;2024-02-26T10:52:58;6.80;1.00
29777;DHT22;16677;52.224;7.484;2024-02-26T10:55:26;6.80;1.00
29777;DHT22;16677;52.224;7.484;2024-02-26T10:57:53;6.90;1.00
29777;DHT22;16677;52.224;7.484;2024-02-26T11:00:21;7.00;1.00
29777;DHT22;16677;52.224;7.484;2024-02-26T11:02:48;6.90;1.00
29777;DHT22;16677;52.224;7.484;2024-02-26T11:05:15;6.90;1.00
29777;DHT22;16677;52.224;7.484;2024-02-26T11:07:43;6.90;1.00
29777;DHT22;16677;52.224;7.484;2024-02-26T11:10:11;7.00;1.00
29777;DHT22;16677;52.224;7.484;2024-02-26T11:12:38;6.90;1.00
29777;DHT22;16677;52.224;7.484;2024-02-26T11:15:05;7.00;1.00
29777;DHT22;16677;52.224;7.484;2024-02-26T11:17:33;6.90;1.00
29777;DHT22;16677;52.224;7.484;2024-02-26T11:20:01;7.00;1.00
29777;DHT22;16677;52.224;7.484;2024-02-26T11:22:29;6.90;1.00
29777;DHT22;16677;52.224;7.484;2024-02-26T11:24:56;6.90;1.00
29777;DHT22;16677;52.224;7.484;2024-02-26T11:27:25;6.90;1.00
29777;DHT22;16677;52.224;7.484;2024-02-26T11:29:53;6.90;1.00
29777;DHT22;16677;52.224;7.484;2024-02-26T11:32:21;6.90;1.00
29777;DHT22;16677;52.224;7.484;2024-02-26T11:34:48;6.90;1.00
29777;DHT22;16677;52.224;7.484;2024-02-26T11:37:16;6.90;1.00
29777;DHT22;16677;52.224;7.484;2024-02-26T11:39:43;6.90;1.00
29777;DHT22;16677;52.224;7.484;2024-02-26T11:42:15;6.80;1.00
29777;DHT22;16677;52.224;7.484;2024-02-26T11:44:42;6.90;1.00
29777;DHT22;16677;52.224;7.484;2024-02-26T11:47:09;6.80;1.00
29777;DHT22;16677;52.224;7.484;2024-02-26T11:49:36;6.80;1.00
29777;DHT22;16677;52.224;7.484;2024-02-26T11:52:13;6.90;1.00
29777;DHT22;16677;52.224;7.484;2024-02-26T11:54:43;6.80;1.00
29777;DHT22;16677;52.224;7.484;2024-02-26T11:57:26;6.90;1.00
29777;DHT22;16677;52.224;7.484;2024-02-26T11:59:55;6.80;1.00
29777;DHT22;16677;52.224;7.484;2024-02-26T12:05:26;6.90;1.00
29777;DHT22;16677;52.224;7.484;2024-02-26T12:07:55;7.00;1.00
29777;DHT22;16677;52.224;7.484;2024-02-26T12:10:26;6.90;1.00
29777;DHT22;16677;52.224;7.484;2024-02-26T12:12:58;7.00;1.00
29777;DHT22;16677;52.224;7.484;2024-02-26T12:15:29;6.90;1.00
29777;DHT22;16677;52.224;7.484;2024-02-26T12:17:56;6.90;1.00
29777;DHT22;16677;52.224;7.484;2024-02-26T12:20:23;7.00;1.00
29777;DHT22;16677;52.224;7.484;2024-02-26T12:22:50;6.90;1.00
29777;DHT22;16677;52.224;7.484;2024-02-26T12:25:20;6.90;1.00
29777;DHT22;16677;52.224;7.484;2024-02-26T12:27:48;6.90;1.00
29777;DHT22;16677;52.224;7.484;2024-02-26T12:30:14;6.90;1.00
29777;DHT22;16677;52.224;7.484;2024-02-26T12:32:41;7.00;1.00
29777;DHT22;16677;52.224;7.484;2024-02-26T12:35:08;7.10;1.00
29777;DHT22;16677;52.224;7.484;2024-02-26T12:37:35;7.10;1.00
29777;DHT22;16677;52.224;7.484;2024-02-26T12:40:06;7.10;1.00
29777;DHT22;16677;52.224;7.484;2024-02-26T12:42:35;7.00;1.00
29777;DHT22;16677;52.224;7.484;2024-02-26T12:45:09;7.10;1.00
29777;DHT22;16677;52.224;7.484;2024-02-26T12:47:39;7.00;1.00
29777;DHT22;16677;52.224;7.484;2024-02-26T12:50:07;7.00;1.00
29777;DHT22;16677;52.224;7.484;2024-02-26T12:52:36;7.00;1.00
29777;DHT22;16677;52.224;7.484;2024-02-26T12:55:03;7.00;1.00
29777;DHT22;16677;52.224;7.484;2024-02-26T12:57:31;7.10;1.00
29777;DHT22;16677;52.224;7.484;2024-02-26T12:59:59;7.00;1.00
29777;DHT22;16677;52.224;7.484;2024-02-26T13:02:27;7.00;1.00
29777;DHT22;16677;52.224;7.484;2024-02-26T13:04:56;7.10;1.00
29777;DHT22;16677;52.224;7.484;2024-02-26T13:07:23;7.10;1.00
29777;DHT22;16677;52.224;7.484;2024-02-26T13:09:50;7.10;1.00
29777;DHT22;16677;52.224;7.484;2024-02-26T13:12:18;7.10;1.00
29777;DHT22;16677;52.224;7.484;2024-02-26T13:14:44;7.10;1.00
29777;DHT22;16677;52.224;7.484;2024-02-26T13:17:12;7.20;1.00
29777;DHT22;16677;52.224;7.484;2024-02-26T13:19:48;7.30;1.00
29777;DHT22;16677;52.224;7.484;2024-02-26T13:22:15;7.30;1.00
29777;DHT22;16677;52.224;7.484;2024-02-26T13:24:42;7.30;1.00
29777;DHT22;16677;52.224;7.484;2024-02-26T13:27:09;7.20;1.00
29777;DHT22;16677;52.224;7.484;2024-02-26T13:29:36;7.30;1.00
29777;DHT22;16677;52.224;7.484;2024-02-26T13:32:03;7.30;1.00
29777;DHT22;16677;52.224;7.484;2024-02-26T13:34:30;7.40;1.00
29777;DHT22;16677;52.224;7.484;2024-02-26T13:36:57;7.50;1.00
29777;DHT22;16677;52.224;7.484;2024-02-26T13:39:25;7.40;1.00
29777;DHT22;16677;52.224;7.484;2024-02-26T13:41:52;7.50;1.00
29777;DHT22;16677;52.224;7.484;2024-02-26T13:44:20;7.50;1.00
29777;DHT22;16677;52.224;7.484;2024-02-26T13:46:47;7.70;1.00
29777;DHT22;16677;52.224;7.484;2024-02-26T13:49:14;7.60;1.00
29777;DHT22;16677;52.224;7.484;2024-02-26T13:51:41;7.60;1.00
29777;DHT22;16677;52.224;7.484;2024-02-26T13:54:08;7.60;1.00
29777;DHT22;16677;52.224;7.484;2024-02-26T13:56:37;7.60;1.00
29777;DHT22;16677;52.224;7.484;2024-02-26T13:59:04;7.60;1.00
29777;DHT22;16677;52.224;7.484;2024-02-26T14:01:31;7.60;1.00
29777;DHT22;16677;52.224;7.484;2024-02-26T14:04:00;7.60;1.00
29777;DHT22;16677;52.224;7.484;2024-02-26T14:06:28;7.50;1.00
29777;DHT22;16677;52.224;7.484;2024-02-26T14:08:57;7.40;1.00
29777;DHT22;16677;52.224;7.484;2024-02-26T14:11:24;7.50;1.00
29777;DHT22;16677;52.224;7.484;2024-02-26T14:13:52;7.50;1.00
29777;DHT22;16677;52.224;7.484;2024-02-26T14:16:18;7.40;1.00
29777;DHT22;16677;52.224;7.484;2024-02-26T14:18:47;7.50;1.00
29777;DHT22;16677;52.224;7.484;2024-02-26T14:21:14;7.50;1.00
29777;DHT22;16677;52.224;7.484;2024-02-26T14:23:41;7.60;1.00
29777;DHT22;16677;52.224;7.484;2024-02-26T14:26:11;7.60;1.00
29777;DHT22;16677;52.224;7.484;2024-02-26T14:28:38;7.60;1.00
29777;DHT22;16677;52.224;7.484;2024-02-26T14:31:05;7.60;1.00
29777;DHT22;16677;52.224;7.484;2024-02-26T14:33:33;7.60;1.00
29777;DHT22;16677;52.224;7.484;2024-02-26T14:36:01;7.60;1.00
29777;DHT22;16677;52.224;7.484;2024-02-26T14:38:28;7.50;1.00
29777;DHT22;16677;52.224;7.484;2024-02-26T14:40:55;7.50;1.00
29777;DHT22;16677;52.224;7.484;2024-02-26T14:43:22;7.50;99.90
29777;DHT22;16677;52.224;7.484;2024-02-26T14:45:49;7.40;99.90
29777;DHT22;16677;52.224;7.484;2024-02-26T14:48:15;7.30;99.90
29777;DHT22;16677;52.224;7.484;2024-02-26T14:50:42;7.30;99.90
29777;DHT22;16677;52.224;7.484;2024-02-26T14:53:09;7.30;1.00
29777;DHT22;16677;52.224;7.484;2024-02-26T14:55:36;7.20;99.90
29777;DHT22;16677;52.224;7.484;2024-02-26T14:58:04;7.20;99.90
29777;DHT22;16677;52.224;7.484;2024-02-26T15:00:31;7.20;1.00
29777;DHT22;16677;52.224;7.484;2024-02-26T15:03:00;7.20;1.00
29777;DHT22;16677;52.224;7.484;2024-02-26T15:05:27;7.20;1.00
29777;DHT22;16677;52.224;7.484;2024-02-26T15:07:54;7.20;1.00
29777;DHT22;16677;52.224;7.484;2024-02-26T15:10:21;7.20;1.00
29777;DHT22;16677;52.224;7.484;2024-02-26T15:12:48;7.20;1.00
29777;DHT22;16677;52.224;7.484;2024-02-26T15:15:15;7.20;1.00
29777;DHT22;16677;52.224;7.484;2024-02-26T15:17:42;7.20;99.90
29777;DHT22;16677;52.224;7.484;2024-02-26T15:20:10;7.20;99.90
29777;DHT22;16677;52.224;7.484;2024-02-26T15:22:37;7.20;1.00
29777;DHT22;16677;52.224;7.484;2024-02-26T15:25:04;7.20;99.90
29777;DHT22;16677;52.224;7.484;2024-02-26T15:27:31;7.20;99.90
29777;DHT22;16677;52.224;7.484;2024-02-26T15:29:58;7.20;99.90
29777;DHT22;16677;52.224;7.484;2024-02-26T15:32:26;7.20;99.90
29777;DHT22;16677;52.224;7.484;2024-02-26T15:34:54;7.20;99.90
29777;DHT22;16677;52.224;7.484;2024-02-26T15:37:21;7.20;99.90
29777;DHT22;16677;52.224;7.484;2024-02-26T15:39:48;7.20;99.90
29777;DHT22;16677;52.224;7.484;2024-02-26T15:42:15;7.20;99.90
29777;DHT22;16677;52.224;7.484;2024-02-26T15:44:41;7.20;99.90
29777;DHT22;16677;52.224;7.484;2024-02-26T15:47:08;7.20;99.90
29777;DHT22;16677;52.224;7.484;2024-02-26T15:49:35;7.20;99.90
29777;DHT22;16677;52.224;7.484;2024-02-26T15:52:02;7.20;99.90
29777;DHT22;16677;52.224;7.484;2024-02-26T15:54:30;7.10;99.90
29777;DHT22;16677;52.224;7.484;2024-02-26T15:56:57;7.10;1.00
29777;DHT22;16677;52.224;7.484;2024-02-26T15:59:24;7.10;1.00